Camden, IN (46917)

8:29 AM EDT on August 24, 2016 (GMT -0400)
Carroll Jr/Sr High School | | Change Station

Elev 715 ft 40.55 °N, 86.48 °W | Updated 40 seconds ago

Clear
Clear
72.2 °F
Feels Like 77 °F
N
8.8
Wind Variable Wind from SSE
Gusts 10.2 mph

Today
High -- | Low -- °F
--% Chance of Precip.
Yesterday
High -- | Low -- °F
Precip. -- in
Pressure 30.10 in
Visibility 10.0 miles
Clouds Clear
Heat Index 77 °F
Dew Point 46 °F
Humidity 39%
Rainfall 0.00 in
Snow Depth Not available.
7:05 AM 8:29 PM
Waning Gibbous, 57% visible
METAR KGGP 241215Z AUTO 17007KT 10SM CLR 21/17 A3010 RMK AO2
Pressure 30.10 in
Visibility 10.0 miles
Clouds Clear
Heat Index 77 °F
Dew Point 46 °F
Humidity 39%
Rainfall 0.00 in
Snow Depth Not available.
7:05 AM 8:29 PM
Waning Gibbous, 57% visible
METAR KGGP 241215Z AUTO 17007KT 10SM CLR 21/17 A3010 RMK AO2

10-Day Weather Forecast

Almanac

Astronomy

Aug. 24, 2016 Rise Set
Actual Time
Civil Twilight
Nautical Twilight
Astronomical Twilight
Moon
Length of Visible Light
Length of Day
Tomorrow will be .
, % of the Moon is Illuminated

Today's Extremes

State Highs State Lows

Community

WunderPhotos

Upload Photos

1,934,579 photos uploaded!

WunderBlog® & News

Nearby

Air Quality

  Air Quality AQ Index Pollutant
Not available.

Snow Depth

Station Depth Elevation

Earthquake Activity

City Distance Mag. Time & Date
Minimum magnitude displayed is 2.5.

Coastal Water Temperatures

Place Temperature

Stations

Nearby Weather Stations

Station Location Temp. Windchill Dew Point Humidity Wind Precip. Elev Updated Type
                   

Watches & Warnings

There are currently no watches in effect.